Time;durP1;ratioP1;P1;durP2;ratioP2;P2;SDS_P1;SDS_P2;PMS_P1;PMS_P2;Temp;Humidity;BMP_temperature;BMP_pressure;BME280_temperature;BME280_humidity;BME280_pressure;Samples;Min_cycle;Max_cycle;Signal;HPM_P1;HPM_P2
2024/04/07 00:00:22;;;;;;;2.50;2.30;;;;;;;19.83;42.10;94515.44;6149798;23;20266;-88
2024/04/07 00:03:38;;;;;;;3.00;2.40;;;;;;;19.80;41.78;94508.91;6149756;23;20179;-89
2024/04/07 00:06:17;;;;;;;4.00;2.20;;;;;;;19.77;42.16;94526.94;6150594;23;20194;-89
2024/04/07 00:09:19;;;;;;;4.05;2.47;;;;;;;19.59;42.68;94552.50;6150647;23;20197;-89
2024/04/07 00:12:20;;;;;;;2.60;2.38;;;;;;;19.53;43.20;94584.84;6142619;23;20242;-89
2024/04/07 00:14:57;;;;;;;2.70;2.50;;;;;;;19.46;43.70;94601.75;6150316;23;20198;-89
2024/04/07 00:17:38;;;;;;;2.55;2.33;;;;;;;19.42;43.55;94593.66;6124074;23;20187;-89
2024/04/07 00:24:01;;;;;;;2.53;2.33;;;;;;;19.34;43.46;94583.72;5972741;24;20247;-89
2024/04/07 00:27:04;;;;;;;;;;;;;;;;;;;;;
2024/04/07 00:33:24;;;;;;;3.38;2.50;;;;;;;19.38;43.86;94607.47;6055284;23;20176;-88
2024/04/07 00:36:27;;;;;;;;;;;;;;;;;;;;;
2024/04/07 00:39:41;;;;;;;3.33;2.35;;;;;;;19.25;44.77;94653.88;6119893;23;20277;-88
2024/04/07 00:42:47;;;;;;;4.50;2.60;;;;;;;19.17;45.83;94701.34;6031122;23;20637;-88
2024/04/07 00:48:24;;;;;;;2.47;2.10;;;;;;;19.01;45.53;94711.91;6147083;23;20199;-89
2024/04/07 00:51:11;;;;;;;3.88;2.40;;;;;;;18.96;45.75;94710.06;6149958;23;20647;-89
2024/04/07 00:53:59;;;;;;;2.38;2.10;;;;;;;18.97;45.38;94698.59;6140202;23;20202;-89
2024/04/07 00:57:17;;;;;;;3.92;2.35;;;;;;;19.04;44.84;94686.13;6150137;23;20174;-90
2024/04/07 00:59:53;;;;;;;6.18;2.10;;;;;;;18.95;44.65;94670.13;6148142;23;20199;-89
2024/04/07 01:02:43;;;;;;;3.28;2.00;;;;;;;18.90;44.85;94692.78;6150356;23;20194;-89
2024/04/07 01:05:34;;;;;;;3.25;1.83;;;;;;;18.86;45.20;94712.56;6149958;23;20191;-89
2024/04/07 01:08:20;;;;;;;1.90;1.80;;;;;;;18.67;45.14;94717.38;6150100;23;20257;-89
2024/04/07 01:11:02;;;;;;;3.58;1.90;;;;;;;18.56;44.91;94711.25;6150881;23;20190;-89
2024/04/07 01:13:41;;;;;;;3.15;2.88;;;;;;;18.63;44.66;94703.28;6150685;23;20179;-90
2024/04/07 01:16:19;;;;;;;3.33;2.80;;;;;;;18.61;44.76;94706.13;6150462;23;20190;-89
2024/04/07 01:19:00;;;;;;;2.63;2.42;;;;;;;18.49;45.05;94715.09;6149994;23;20206;-89
2024/04/07 01:21:48;;;;;;;5.75;3.00;;;;;;;18.53;44.99;94724.00;6149664;23;20250;-89
2024/04/07 01:24:25;;;;;;;2.60;2.40;;;;;;;18.53;45.18;94731.81;6150272;23;20156;-90
2024/04/07 01:27:20;;;;;;;5.10;3.67;;;;;;;18.47;45.51;94740.66;6150069;23;20162;-89
2024/04/07 01:30:03;;;;;;;3.30;2.67;;;;;;;18.35;45.58;94745.97;6150058;23;20198;-89
2024/04/07 01:32:54;;;;;;;4.75;3.38;;;;;;;18.30;45.76;94751.91;6150865;23;20245;-89
2024/04/07 01:35:53;;;;;;;3.63;2.78;;;;;;;18.23;46.05;94758.38;6150447;23;20205;-90
2024/04/07 01:38:39;;;;;;;3.97;3.58;;;;;;;18.00;46.68;94790.66;6150045;23;20194;-89
2024/04/07 01:41:28;;;;;;;2.90;2.60;;;;;;;17.94;46.73;94779.38;6030363;23;20173;-89
2024/04/07 01:44:08;;;;;;;5.97;2.60;;;;;;;17.91;46.84;94790.28;6030765;23;20182;-89
2024/04/07 01:47:00;;;;;;;2.90;2.60;;;;;;;17.83;46.76;94789.94;6131747;23;20178;-89
2024/04/07 01:52:59;;;;;;;3.38;2.92;;;;;;;17.81;46.64;94766.72;6103891;23;20302;-89
2024/04/07 01:59:10;;;;;;;4.45;2.30;;;;;;;18.07;46.54;94773.06;6100409;23;20200;-89
2024/04/07 02:02:21;;;;;;;2.60;2.40;;;;;;;18.15;46.23;94749.16;6069623;23;20658;-88
2024/04/07 02:05:33;;;;;;;4.47;2.42;;;;;;;18.14;46.09;94746.78;6122859;23;20156;-89
2024/04/07 02:08:35;;;;;;;3.97;2.83;;;;;;;18.09;46.08;94737.09;6123161;23;20182;-88
2024/04/07 02:11:30;;;;;;;3.42;2.17;;;;;;;18.11;45.61;94714.19;6122427;23;20190;-88
2024/04/07 02:14:15;;;;;;;4.03;2.55;;;;;;;18.13;45.40;94703.53;6122839;23;20249;-90
2024/04/07 02:16:48;;;;;;;4.07;2.45;;;;;;;18.17;45.25;94700.19;6123140;23;20504;-89
2024/04/07 02:25:48;;;;;;;1.60;1.50;;;;;;;18.40;41.81;94527.09;6073907;23;20177;-89
2024/04/07 02:28:30;;;;;;;2.15;1.80;;;;;;;18.37;41.95;94519.78;6123417;23;20254;-89
2024/04/07 02:31:08;;;;;;;1.58;1.48;;;;;;;18.43;41.54;94512.78;6122038;23;20180;-89
2024/04/07 02:33:46;;;;;;;1.40;1.30;;;;;;;18.49;41.22;94494.31;6122703;23;20175;-89
2024/04/07 02:36:43;;;;;;;2.97;1.40;;;;;;;18.53;40.57;94447.69;6122243;23;20191;-89
2024/04/07 02:42:22;;;;;;;1.98;1.40;;;;;;;18.62;40.50;94433.94;6119873;23;20167;-89
2024/04/07 02:48:08;;;;;;;1.90;1.60;;;;;;;18.61;39.88;94414.13;6123143;23;20163;-89
2024/04/07 02:54:07;;;;;;;2.20;1.40;;;;;;;18.55;40.15;94432.56;6137328;23;20178;-89
2024/04/07 02:57:09;;;;;;;1.70;1.60;;;;;;;18.58;40.00;94416.44;6152328;23;20253;-89
2024/04/07 03:01:50;;;;;;;2.13;1.60;;;;;;;18.62;40.27;94412.31;6159229;23;20266;-89
2024/04/07 03:02:55;;;;;;;2.10;1.90;;;;;;;18.58;40.04;94408.59;6054369;23;20186;-89
2024/04/07 03:05:41;;;;;;;1.70;1.60;;;;;;;18.59;39.72;94389.34;6152593;23;20174;-89
2024/04/07 03:11:17;;;;;;;2.38;1.30;;;;;;;18.49;39.18;94355.38;6165497;23;20213;-89
2024/04/07 03:14:30;;;;;;;1.27;1.17;;;;;;;18.44;39.03;94347.56;6154635;23;20631;-88
2024/04/07 03:16:58;;;;;;;1.30;1.20;;;;;;;18.42;39.14;94345.22;6140504;23;20177;-88
2024/04/07 03:19:28;;;;;;;2.33;1.20;;;;;;;18.43;39.09;94354.59;6151792;23;20273;-87
2024/04/07 03:22:20;;;;;;;;;;;;;;;;;;;;;
2024/04/07 03:25:09;;;;;;;2.63;1.40;;;;;;;18.46;39.35;94358.53;6151621;23;20179;-88
2024/04/07 03:28:02;;;;;;;;;;;;;;;;;;;;;
2024/04/07 03:30:57;;;;;;;2.28;1.40;;;;;;;18.46;39.16;94354.09;6151416;23;20622;-88
2024/04/07 03:36:53;;;;;;;1.73;1.30;;;;;;;18.37;39.56;94386.09;6148523;23;20250;-89
2024/04/07 03:48:38;;;;;;;2.00;1.10;;;;;;;18.37;39.01;94339.19;6031768;23;20241;-88
2024/04/07 03:51:39;;;;;;;2.03;1.38;;;;;;;18.32;38.92;94350.38;6031782;23;20205;-88
2024/04/07 03:54:22;;;;;;;2.05;1.20;;;;;;;18.27;38.93;94348.53;6151056;23;20658;-88
2024/04/07 03:57:04;;;;;;;1.58;1.25;;;;;;;18.23;38.88;94342.25;6150961;23;20277;-88
2024/04/07 04:00:03;;;;;;;;;;;;;;;;;;;;;
2024/04/07 04:06:05;;;;;;;1.45;1.20;;;;;;;18.22;38.13;94280.00;6150072;23;20538;-89
2024/04/07 04:09:05;;;;;;;1.33;1.23;;;;;;;18.24;38.64;94303.97;6151633;23;20195;-89
2024/04/07 04:11:35;;;;;;;1.52;1.33;;;;;;;18.22;38.34;94290.41;6150472;23;20229;-88
2024/04/07 04:20:03;;;;;;;1.58;1.35;;;;;;;18.10;38.99;94316.66;6148356;23;20195;-88
2024/04/07 04:22:58;;;;;;;2.55;1.88;;;;;;;18.04;38.25;94288.25;6150087;23;20166;-88
2024/04/07 04:29:00;;;;;;;1.83;1.40;;;;;;;18.03;38.36;94284.88;6131425;23;20278;-88
2024/04/07 04:33:37;;;;;;;1.10;1.00;;;;;;;18.03;37.85;94240.59;6151529;23;20171;-89
2024/04/07 04:34:37;;;;;;;1.95;1.30;;;;;;;18.03;37.88;94242.41;6042413;23;20175;-89
2024/04/07 04:37:07;;;;;;;2.10;1.20;;;;;;;18.13;37.87;94256.25;6151398;23;20171;-89
2024/04/07 04:46:42;;;;;;;1.73;1.05;;;;;;;18.23;37.19;94219.03;5915655;24;20534;-89
2024/04/07 04:49:23;;;;;;;;;;;;;;;;;;;;;
2024/04/07 04:52:17;;;;;;;1.90;1.30;;;;;;;18.23;36.72;94204.19;6029401;23;20921;-89
2024/04/07 04:55:30;;;;;;;1.42;1.30;;;;;;;18.18;36.78;94204.16;6137269;23;20186;-90
2024/04/07 04:58:13;;;;;;;1.77;1.30;;;;;;;18.19;36.94;94207.56;6150834;23;20198;-88
2024/04/07 05:03:58;;;;;;;1.25;1.15;;;;;;;18.18;37.29;94230.22;6117038;23;20646;-90
2024/04/07 05:06:42;;;;;;;4.03;1.30;;;;;;;18.30;37.09;94246.38;6149865;23;20174;-89
2024/04/07 05:09:22;;;;;;;1.50;1.40;;;;;;;18.40;37.57;94276.91;6147962;23;20543;-88
2024/04/07 05:12:27;;;;;;;1.73;1.25;;;;;;;18.50;38.36;94312.63;6150578;23;20163;-89
2024/04/07 05:24:46;;;;;;;3.42;1.42;;;;;;;18.63;39.38;94396.41;6100330;23;20182;-89
2024/04/07 05:28:53;;;;;;;1.95;1.35;;;;;;;18.55;40.64;94467.25;6151222;23;20534;-89
2024/04/07 05:47:42;;;;;;;1.50;1.35;;;;;;;18.56;40.62;94478.47;5943923;24;20187;-88
2024/04/07 05:54:22;;;;;;;;;;;;;;;;;;;;;
2024/04/07 05:57:24;;;;;;;1.65;1.50;;;;;;;18.70;44.04;94677.75;6064134;23;20572;-88
2024/04/07 05:59:52;;;;;;;1.50;1.40;;;;;;;18.76;43.67;94687.22;6112581;23;20209;-88
2024/04/07 06:02:37;;;;;;;2.85;1.65;;;;;;;18.77;44.28;94707.03;6149781;23;21019;-87
2024/04/07 06:05:27;;;;;;;2.10;1.33;;;;;;;18.75;44.57;94714.31;6150880;23;20178;-88
2024/04/07 06:11:40;;;;;;;2.03;1.58;;;;;;;18.79;44.17;94683.31;6117918;23;20178;-88
2024/04/07 06:14:17;;;;;;;2.00;1.63;;;;;;;18.88;44.70;94736.59;6150343;23;20171;-89
2024/04/07 06:17:23;;;;;;;3.13;1.50;;;;;;;18.93;45.08;94757.50;6150704;23;20274;-89
2024/04/07 06:20:36;;;;;;;1.48;1.38;;;;;;;19.01;43.26;94655.31;6150704;23;20202;-89
2024/04/07 06:22:52;;;;;;;1.73;1.50;;;;;;;19.14;43.28;94661.91;6135761;23;20189;-88
2024/04/07 06:25:35;;;;;;;;;;;;;;;;;;;;;
2024/04/07 06:31:17;;;;;;;3.15;1.48;;;;;;;19.36;43.10;94659.94;6078282;23;20308;-89
2024/04/07 06:33:58;;;;;;;1.85;1.20;;;;;;;19.39;42.12;94599.41;6142070;23;20253;-89
2024/04/07 06:36:31;;;;;;;1.98;1.35;;;;;;;19.45;41.34;94556.59;6149842;23;20245;-88
2024/04/07 06:39:00;;;;;;;2.97;1.67;;;;;;;19.50;40.52;94503.63;6149242;23;20304;-89
2024/04/07 06:41:34;;;;;;;2.25;1.42;;;;;;;19.57;39.85;94480.69;6149758;23;20627;-88
2024/04/07 06:44:09;;;;;;;2.40;1.58;;;;;;;19.66;40.18;94490.34;6149439;23;20249;-87
2024/04/07 06:47:09;;;;;;;2.47;1.55;;;;;;;19.74;39.65;94485.66;6149797;23;20159;-89
2024/04/07 06:49:54;;;;;;;2.38;1.40;;;;;;;19.75;38.84;94433.16;6151108;23;20223;-88
2024/04/07 06:55:42;;;;;;;1.48;1.33;;;;;;;19.74;39.12;94442.03;6124158;23;20213;-88
2024/04/07 06:58:15;;;;;;;2.03;1.50;;;;;;;19.82;39.21;94453.81;6151305;23;20155;-89
2024/04/07 07:00:52;;;;;;;;;;;;;;;;;;;;;
2024/04/07 07:03:24;;;;;;;1.90;1.50;;;;;;;19.93;38.68;94431.84;6151607;23;20171;-89
2024/04/07 07:06:16;;;;;;;;;;;;;;;;;;;;;
2024/04/07 07:09:10;;;;;;;1.48;1.27;;;;;;;20.23;39.31;94473.63;6151437;23;20191;-88
2024/04/07 07:11:50;;;;;;;2.72;1.50;;;;;;;20.37;39.55;94507.91;6151510;23;20226;-88
2024/04/07 07:14:21;;;;;;;2.45;1.38;;;;;;;20.47;39.87;94528.00;6151697;23;20159;-88
2024/04/07 07:16:58;;;;;;;4.15;1.65;;;;;;;20.58;39.63;94527.75;6150446;23;20191;-89
2024/04/07 07:25:32;;;;;;;3.35;1.40;;;;;;;19.96;41.65;94705.69;6148064;23;20178;-89
2024/04/07 07:28:00;;;;;;;1.38;1.27;;;;;;;19.70;42.16;94727.50;6151269;23;20484;-88
2024/04/07 07:36:17;;;;;;;1.60;1.42;;;;;;;19.49;42.48;94789.25;6148829;23;20611;-88
2024/04/07 07:39:13;;;;;;;2.47;1.42;;;;;;;19.51;42.80;94806.25;6150836;23;20205;-88
2024/04/07 07:42:36;;;;;;;1.42;1.30;;;;;;;19.64;42.20;94776.31;6149532;23;20182;-88
2024/04/07 07:45:28;;;;;;;2.67;1.40;;;;;;;19.74;42.14;94763.31;6139768;23;20171;-89
2024/04/07 07:48:34;;;;;;;1.80;1.48;;;;;;;19.84;43.11;94827.88;6140403;23;20175;-87
2024/04/07 08:09:16;;;;;;;3.47;1.17;;;;;;;21.61;37.51;94566.41;5864797;24;20779;-88
2024/04/07 08:19:15;;;;;;;;;;;;;;;;;;;;;
2024/04/07 08:44:54;;;;;;;1.83;1.13;;;;;;;24.90;30.94;94237.22;6149483;23;20210;-91
2024/04/07 09:16:34;;;;;;;1.98;1.10;;;;;;;26.65;27.73;94035.94;6151975;23;20202;-88
2024/04/07 09:49:14;;;;;;;4.07;1.45;;;;;;;28.22;26.66;93970.50;6145425;23;20195;-87
2024/04/07 09:55:30;;;;;;;3.67;2.10;;;;;;;28.39;25.49;93922.69;6025601;23;20174;-87
2024/04/07 10:01:25;;;;;;;7.63;2.00;;;;;;;28.43;25.79;93921.69;6030268;23;20201;-88
2024/04/07 10:08:56;;;;;;;8.43;2.13;;;;;;;28.15;24.75;93851.91;6022922;23;20197;-88
2024/04/07 10:12:11;;;;;;;7.15;2.03;;;;;;;27.46;25.36;93865.81;6031018;23;20313;-88
2024/04/07 10:29:07;;;;;;;8.70;2.20;;;;;;;27.59;26.43;93933.53;5893481;24;20353;-87
2024/04/07 10:32:06;;;;;;;10.30;2.53;;;;;;;27.59;26.18;93938.03;5948024;24;20793;-88
2024/04/07 10:35:46;;;;;;;8.93;2.03;;;;;;;27.66;26.49;93970.03;5950316;24;20180;-88
2024/04/07 11:04:32;;;;;;;;;;;;;;;;;;;;;
2024/04/07 11:37:14;;;;;;;13.48;3.22;;;;;;;28.31;26.42;93942.84;6151712;23;20199;-85
2024/04/07 11:40:13;;;;;;;10.15;2.42;;;;;;;28.40;25.93;93927.63;6154222;23;20656;-86
2024/04/07 11:42:51;;;;;;;7.47;4.05;;;;;;;28.51;26.57;93939.34;6154048;23;20204;-85
2024/04/07 11:45:16;;;;;;;13.88;3.13;;;;;;;28.53;25.93;93926.53;6154980;23;20687;-87
2024/04/07 11:47:54;;;;;;;10.95;2.95;;;;;;;28.65;26.32;93925.03;6152612;23;20188;-86
2024/04/07 11:50:27;;;;;;;11.73;2.53;;;;;;;28.79;26.33;93939.47;6153097;23;20682;-86
2024/04/07 11:53:12;;;;;;;6.85;2.40;;;;;;;28.89;26.22;93911.78;6151609;23;20234;-86
2024/04/07 11:55:41;;;;;;;10.48;2.50;;;;;;;29.07;26.09;93922.94;6154535;23;20163;-86
2024/04/07 12:20:55;;;;;;;9.02;2.60;;;;;;;28.62;26.34;93931.75;6019369;23;20177;-83
2024/04/07 12:23:21;;;;;;;9.82;2.55;;;;;;;28.50;26.48;93932.50;6084084;23;20193;-85
2024/04/07 12:33:02;;;;;;;9.73;3.17;;;;;;;28.70;25.97;93856.69;5887773;23;20683;-86
2024/04/07 12:39:05;;;;;;;;;;;;;;;;;;;;;
2024/04/07 12:42:17;;;;;;;9.88;2.50;;;;;;;28.63;26.57;93909.47;6149984;23;20178;-88
2024/04/07 12:46:08;;;;;;;;;;;;;;;;;;;;;
2024/04/07 12:55:42;;;;;;;13.90;6.32;;;;;;;28.40;26.74;93914.41;5836051;24;20526;-87
2024/04/07 13:12:10;;;;;;;10.88;3.40;;;;;;;28.94;27.08;93903.63;6048271;23;20187;-86
2024/04/07 13:15:21;;;;;;;;;;;;;;;;;;;;;
2024/04/07 13:18:06;;;;;;;15.85;6.55;;;;;;;28.48;26.93;93912.78;6030418;23;20177;-87
2024/04/07 13:30:46;;;;;;;11.27;6.88;;;;;;;28.35;27.97;93933.13;5919737;24;20197;-88
2024/04/07 13:33:55;;;;;;;18.75;5.13;;;;;;;28.15;27.68;93933.94;6005954;23;20181;-88
2024/04/07 13:36:48;;;;;;;11.63;6.13;;;;;;;28.08;28.01;93965.47;6031278;23;20161;-87
2024/04/07 13:40:29;;;;;;;;;;;;;;;;;;;;;
2024/04/07 13:57:11;;;;;;;15.10;2.88;;;;;;;28.35;28.14;93935.00;5922679;22;5993560;-84
2024/04/07 13:59:48;;;;;;;9.73;2.95;;;;;;;28.27;27.89;93931.38;6259623;22;20203;-86
2024/04/07 14:02:14;;;;;;;13.25;2.90;;;;;;;28.29;28.38;93939.75;6249461;23;20230;-86
2024/04/07 14:05:26;;;;;;;;;;;;;;;;;;;;;
2024/04/07 14:08:22;;;;;;;6.03;2.40;;;;;;;28.29;27.64;93923.84;6231347;23;20260;-86
2024/04/07 14:11:18;;;;;;;12.32;2.90;;;;;;;28.23;27.20;93893.44;6252483;23;20157;-87
2024/04/07 14:13:45;;;;;;;7.72;2.95;;;;;;;28.10;27.72;93918.28;6249594;23;20165;-87
2024/04/07 14:16:11;;;;;;;11.75;2.90;;;;;;;28.06;28.18;93920.81;6249162;23;20828;-88
2024/04/07 14:18:52;;;;;;;12.40;2.85;;;;;;;28.04;28.12;93901.84;6250940;22;20227;-86
2024/04/07 14:21:17;;;;;;;14.73;3.20;;;;;;;28.07;28.21;93935.59;6251009;23;20255;-86
2024/04/07 14:24:02;;;;;;;7.75;2.63;;;;;;;28.06;27.76;93906.81;6249901;23;20203;-87
2024/04/07 14:26:29;;;;;;;8.63;2.60;;;;;;;28.03;28.36;93905.59;6249602;23;20168;-84
2024/04/07 14:29:02;;;;;;;9.90;2.53;;;;;;;28.05;28.47;93924.56;6250084;22;20199;-85
2024/04/07 14:31:27;;;;;;;9.18;2.38;;;;;;;28.03;28.86;93970.97;6248544;23;20176;-85
2024/04/07 14:34:41;;;;;;;7.63;2.30;;;;;;;28.00;27.51;93897.53;6249058;23;20248;-90
2024/04/07 14:37:46;;;;;;;10.65;2.50;;;;;;;27.96;27.30;93863.00;6182503;23;20305;-86
2024/04/07 14:40:29;;;;;;;;;;;;;;;;;;;;;
2024/04/07 14:43:52;;;;;;;13.40;3.03;;;;;;;27.88;27.19;93823.44;6222898;23;20620;-87
2024/04/07 14:46:29;;;;;;;11.45;2.42;;;;;;;27.90;27.78;93856.41;6253634;23;20251;-87
2024/04/07 14:48:58;;;;;;;10.52;2.50;;;;;;;27.95;27.72;93868.63;6256753;22;20188;-86
2024/04/07 14:51:48;;;;;;;7.95;2.70;;;;;;;27.98;27.85;93852.88;6251222;23;20228;-86
2024/04/07 14:54:50;;;;;;;10.77;2.45;;;;;;;28.08;27.48;93857.00;6138948;23;20725;-88
2024/04/07 14:57:25;;;;;;;11.27;2.47;;;;;;;28.10;27.66;93842.31;6244308;23;20266;-87
2024/04/07 15:03:50;;;;;;;;;;;;;;;;;;;;;
2024/04/07 15:06:19;;;;;;;8.65;2.75;;;;;;;28.09;27.06;93792.38;6241547;23;20566;-87
2024/04/07 15:08:55;;;;;;;11.82;3.08;;;;;;;28.06;26.79;93811.56;6241566;22;20185;-87
2024/04/07 15:11:35;;;;;;;;;;;;;;;;;;;;;
2024/04/07 15:14:02;;;;;;;12.32;2.85;;;;;;;27.95;27.51;93816.47;6235078;23;20224;-86
2024/04/07 15:16:32;;;;;;;10.88;3.13;;;;;;;27.78;27.20;93774.34;6246178;23;20683;-86
2024/04/07 15:18:59;;;;;;;15.10;3.03;;;;;;;27.68;26.77;93766.88;6244221;22;20199;-85
2024/04/07 15:21:28;;;;;;;9.25;2.95;;;;;;;27.61;27.90;93798.34;6243987;23;20849;-87
2024/04/07 15:24:04;;;;;;;11.00;2.63;;;;;;;27.52;27.22;93785.16;6246323;23;20280;-85
2024/04/07 15:26:29;;;;;;;20.48;3.10;;;;;;;27.44;27.22;93781.53;6242660;23;20191;-86
2024/04/07 15:29:08;;;;;;;17.60;3.15;;;;;;;27.39;28.84;93828.53;6242414;22;20197;-87
2024/04/07 15:31:58;;;;;;;9.05;2.92;;;;;;;27.29;28.75;93836.88;6241758;23;20157;-87
2024/04/07 15:35:09;;;;;;;13.30;2.92;;;;;;;27.23;28.51;93843.44;6241389;23;20220;-87
2024/04/07 15:37:50;;;;;;;13.45;2.90;;;;;;;27.11;28.77;93860.03;6087636;23;20580;-87
2024/04/07 15:40:58;;;;;;;;;;;;;;;;;;;;;
2024/04/07 15:43:47;;;;;;;13.75;3.25;;;;;;;26.98;29.32;93882.16;6240436;23;20272;-87
2024/04/07 15:46:36;;;;;;;12.25;2.70;;;;;;;26.92;29.38;93881.56;6241833;23;20172;-87
2024/04/07 15:49:08;;;;;;;10.52;2.90;;;;;;;26.93;29.12;93882.34;6241695;22;20201;-87
2024/04/07 15:51:56;;;;;;;10.25;2.60;;;;;;;26.89;28.90;93871.63;6238556;23;20177;-87
2024/04/07 15:54:42;;;;;;;13.85;2.92;;;;;;;26.82;29.43;93892.47;6241856;23;20160;-87
2024/04/07 15:57:24;;;;;;;8.48;2.72;;;;;;;26.76;30.11;93914.88;6241060;23;20188;-87
2024/04/07 15:59:57;;;;;;;18.67;3.33;;;;;;;26.75;29.83;93914.09;6241165;22;20232;-84
2024/04/07 16:02:25;;;;;;;12.70;3.03;;;;;;;26.77;30.85;93951.53;6243449;23;20181;-84
2024/04/07 16:04:52;;;;;;;9.57;2.53;;;;;;;26.78;30.69;93987.41;6243792;23;20176;-85
2024/04/07 16:07:30;;;;;;;11.77;3.30;;;;;;;26.82;31.06;94000.75;6243257;23;20558;-85
2024/04/07 16:09:55;;;;;;;13.85;3.28;;;;;;;26.81;30.41;93949.81;6242503;22;20271;-85
2024/04/07 16:12:22;;;;;;;9.10;2.55;;;;;;;26.78;30.92;93966.28;6242409;23;20203;-85
2024/04/07 16:14:50;;;;;;;10.63;3.38;;;;;;;26.76;31.54;94000.16;6241931;23;20208;-85
2024/04/07 16:17:25;;;;;;;12.35;3.50;;;;;;;26.71;31.18;93986.38;6242035;23;20230;-84
2024/04/07 16:19:52;;;;;;;14.25;3.15;;;;;;;26.73;31.75;94026.44;6242689;22;20242;-86
2024/04/07 16:22:19;;;;;;;12.90;2.90;;;;;;;26.72;32.29;94054.72;6242206;23;20192;-84
2024/04/07 16:24:44;;;;;;;12.90;3.65;;;;;;;26.69;31.16;94004.41;6242270;23;20231;-84
2024/04/07 16:27:16;;;;;;;7.22;3.15;;;;;;;26.64;31.63;93994.00;6242047;23;20187;-87
2024/04/07 16:29:55;;;;;;;13.65;3.40;;;;;;;26.59;31.45;94004.72;6240405;22;20280;-88
2024/04/07 16:32:22;;;;;;;16.80;3.50;;;;;;;26.60;32.45;94056.44;6240520;23;20199;-89
2024/04/07 16:34:47;;;;;;;9.02;3.60;;;;;;;26.63;32.31;94071.66;6241678;23;20234;-88
2024/04/07 16:44:46;;;;;;;10.32;3.40;;;;;;;26.56;31.65;94018.53;5953915;23;20186;-89
2024/04/07 16:47:33;;;;;;;11.10;3.55;;;;;;;26.51;32.38;94040.63;6116865;23;20171;-89
2024/04/07 16:50:02;;;;;;;7.40;2.95;;;;;;;26.49;32.74;94058.66;6117446;23;20757;-87
2024/04/07 16:52:32;;;;;;;15.13;3.67;;;;;;;26.48;32.87;94067.66;6237839;23;20260;-86
2024/04/07 16:55:06;;;;;;;13.82;3.17;;;;;;;26.48;33.17;94075.56;6242036;23;20194;-85
2024/04/07 16:57:53;;;;;;;18.30;3.45;;;;;;;26.45;32.87;94078.81;6242901;23;20726;-86
2024/04/07 17:00:22;;;;;;;11.50;3.90;;;;;;;26.40;32.55;94063.94;6243492;22;20504;-88
2024/04/07 17:06:06;;;;;;;11.60;3.67;;;;;;;26.09;32.44;94013.97;6117596;23;20218;-87
2024/04/07 17:09:26;;;;;;;15.30;3.90;;;;;;;25.93;31.60;93978.59;6116027;23;20741;-88
2024/04/07 17:12:31;;;;;;;12.35;3.78;;;;;;;25.79;32.19;93989.28;5997540;23;20170;-85
2024/04/07 17:18:14;;;;;;;10.30;3.10;;;;;;;25.73;33.23;94047.78;6096502;23;20211;-85
2024/04/07 17:20:41;;;;;;;12.05;3.10;;;;;;;25.68;33.32;94075.06;6124532;23;20176;-86
2024/04/07 17:23:08;;;;;;;11.73;3.38;;;;;;;25.62;33.29;94054.38;6199737;23;20215;-87
2024/04/07 17:25:33;;;;;;;8.60;3.15;;;;;;;25.52;32.76;94039.66;6244109;23;20181;-86
2024/04/07 17:27:59;;;;;;;14.98;4.50;;;;;;;25.48;33.11;94036.06;6246900;23;20173;-85
2024/04/07 17:30:25;;;;;;;13.43;3.83;;;;;;;25.39;33.46;94049.25;6253801;22;20944;-85
2024/04/07 17:32:51;;;;;;;11.27;4.53;;;;;;;25.25;33.55;94047.78;6250996;23;20169;-85
2024/04/07 17:35:18;;;;;;;18.13;4.68;;;;;;;25.18;33.56;94071.19;6247390;23;20640;-86
2024/04/07 17:37:44;;;;;;;11.65;4.00;;;;;;;25.09;34.27;94095.63;6245317;23;20228;-86
2024/04/07 17:40:10;;;;;;;13.98;4.65;;;;;;;24.97;34.69;94110.44;6242413;22;20204;-85
2024/04/07 17:42:36;;;;;;;11.75;5.40;;;;;;;24.98;34.28;94099.63;6240374;23;20205;-84
2024/04/07 17:45:02;;;;;;;9.15;4.43;;;;;;;24.97;34.44;94108.59;6245699;23;20632;-85
2024/04/07 17:47:29;;;;;;;13.40;5.20;;;;;;;25.01;34.79;94122.72;6247478;23;20183;-86
2024/04/07 17:49:57;;;;;;;8.25;4.38;;;;;;;25.00;35.19;94139.59;6243308;22;20280;-89
2024/04/07 17:52:27;;;;;;;15.43;4.22;;;;;;;25.02;34.84;94118.97;6242052;23;20173;-87
2024/04/07 17:54:54;;;;;;;12.75;4.80;;;;;;;25.02;34.82;94126.09;6241358;23;20521;-88
2024/04/07 17:57:37;;;;;;;12.68;5.00;;;;;;;24.98;34.98;94130.44;6242298;23;20267;-89
2024/04/07 18:00:15;;;;;;;15.75;4.07;;;;;;;24.93;34.91;94144.47;6244728;22;20203;-88
2024/04/07 18:03:15;;;;;;;12.90;4.57;;;;;;;24.83;35.31;94142.06;6246100;23;20188;-87
2024/04/07 18:05:54;;;;;;;12.43;4.35;;;;;;;24.79;35.10;94146.41;6208808;23;20169;-88
2024/04/07 18:14:48;;;;;;;12.38;4.95;;;;;;;24.62;36.25;94193.66;6235097;23;20235;-88
2024/04/07 18:17:17;;;;;;;14.18;5.15;;;;;;;24.57;36.13;94201.69;6241204;23;20537;-88
2024/04/07 18:20:08;;;;;;;12.15;5.47;;;;;;;24.51;36.94;94237.06;6240446;22;20247;-89
2024/04/07 18:22:35;;;;;;;16.90;5.75;;;;;;;24.38;37.23;94278.91;6240927;23;20196;-88
2024/04/07 18:25:04;;;;;;;16.15;5.50;;;;;;;24.25;36.82;94237.59;6240903;23;20234;-87
2024/04/07 18:27:33;;;;;;;16.73;6.63;;;;;;;24.06;36.89;94221.13;6240436;23;20173;-88
2024/04/07 19:07:08;;;;;;;14.05;5.38;;;;;;;23.10;39.54;94331.28;5952680;23;20177;-89
2024/04/07 21:52:03;;;;;;;5.80;2.00;;;;;;;21.51;40.39;94256.63;6070286;23;20183;-90
2024/04/07 23:07:42;;;;;;;7.40;3.30;;;;;;;21.12;41.72;94259.28;6241251;23;20654;-89
2024/04/07 23:45:56;;;;;;;5.93;3.17;;;;;;;20.98;41.30;94186.63;6029512;23;20185;-90
2024/04/07 23:52:01;;;;;;;3.95;2.30;;;;;;;20.93;41.29;94178.84;6059996;23;20176;-89
2024/04/07 23:58:39;;;;;;;8.55;2.30;;;;;;;20.84;40.98;94151.69;5969584;24;20179;-90
